createdAt,value
2019-05-26T00:00:24.525Z,60.89
2019-05-26T00:01:24.506Z,60.80
2019-05-26T00:02:24.526Z,61.08
2019-05-26T00:03:24.604Z,60.80
2019-05-26T00:04:24.563Z,60.89
2019-05-26T00:05:24.566Z,60.61
2019-05-26T00:06:24.543Z,60.99
2019-05-26T00:07:30.549Z,60.89
2019-05-26T00:08:24.571Z,60.89
2019-05-26T00:09:24.590Z,60.61
2019-05-26T00:10:24.621Z,61.08
2019-05-26T00:11:24.658Z,60.89
2019-05-26T00:12:24.597Z,60.61
2019-05-26T00:13:24.602Z,60.61
2019-05-26T00:14:24.610Z,60.51
2019-05-26T00:15:24.650Z,60.80
2019-05-26T00:16:24.634Z,60.89
2019-05-26T00:17:24.636Z,60.99
2019-05-26T00:18:24.647Z,60.99
2019-05-26T00:19:24.647Z,61.08
2019-05-26T00:20:24.674Z,61.57
2019-05-26T00:21:24.741Z,60.99
2019-05-26T00:22:24.685Z,60.89
2019-05-26T00:23:24.691Z,61.72
2019-05-26T00:24:24.708Z,61.66
2019-05-26T00:25:24.738Z,61.37
2019-05-26T00:26:24.706Z,61.63
2019-05-26T00:27:24.748Z,61.44
2019-05-26T00:28:24.728Z,61.25
2019-05-26T00:29:24.736Z,61.72
2019-05-26T00:30:24.752Z,61.34
2019-05-26T00:31:24.743Z,61.91
2019-05-26T00:32:24.753Z,62.01
2019-05-26T00:33:24.783Z,61.91
2019-05-26T00:34:24.774Z,61.63
2019-05-26T00:35:24.822Z,61.63
2019-05-26T00:36:24.794Z,62.11
2019-05-26T00:37:24.833Z,61.91
2019-05-26T00:38:24.809Z,62.49
2019-05-26T00:39:24.877Z,62.01
2019-05-26T00:40:24.829Z,62.49
2019-05-26T00:41:24.866Z,61.91
2019-05-26T00:42:24.847Z,62.30
2019-05-26T00:43:24.845Z,62.11
2019-05-26T00:44:24.842Z,62.68
2019-05-26T00:45:24.866Z,63.16
2019-05-26T00:46:24.876Z,62.40
2019-05-26T00:47:24.915Z,62.49
2019-05-26T00:48:24.888Z,62.11
2019-05-26T00:49:24.908Z,63.26
2019-05-26T00:50:24.890Z,62.49
2019-05-26T00:51:24.942Z,61.91
2019-05-26T00:52:24.916Z,62.49
2019-05-26T00:53:24.946Z,63.06
2019-05-26T00:54:24.944Z,63.06
2019-05-26T00:55:24.953Z,63.26
2019-05-26T00:56:24.933Z,63.06
2019-05-26T00:57:24.990Z,63.26
2019-05-26T00:58:24.985Z,63.16
2019-05-26T00:59:24.972Z,62.97
2019-05-26T01:00:24.979Z,63.35
2019-05-26T01:01:25.010Z,62.59
2019-05-26T01:02:25.005Z,62.68
2019-05-26T01:03:25.020Z,62.59
2019-05-26T01:04:25.027Z,62.97
2019-05-26T01:05:25.021Z,62.97
2019-05-26T01:06:25.009Z,62.77
2019-05-26T01:07:25.019Z,63.35
2019-05-26T01:08:25.049Z,63.35
2019-05-26T01:09:25.104Z,63.35
2019-05-26T01:10:25.106Z,63.35
2019-05-26T01:11:25.076Z,63.35
2019-05-26T01:12:25.071Z,63.35
2019-05-26T01:13:25.087Z,63.26
2019-05-26T01:14:25.109Z,63.16
2019-05-26T01:15:25.095Z,62.87
2019-05-26T01:16:25.089Z,63.06
2019-05-26T01:17:25.098Z,63.06
2019-05-26T01:18:25.113Z,63.35
2019-05-26T01:19:25.177Z,63.26
2019-05-26T01:20:25.120Z,63.45
2019-05-26T01:21:25.142Z,63.64
2019-05-26T01:22:25.154Z,63.54
2019-05-26T01:23:25.156Z,63.45
2019-05-26T01:24:25.160Z,63.64
2019-05-26T01:25:25.209Z,64.02
2019-05-26T01:26:25.178Z,63.70
2019-05-26T01:27:25.191Z,63.83
2019-05-26T01:28:25.192Z,64.12
2019-05-26T01:29:25.194Z,64.22
2019-05-26T01:30:25.223Z,63.83
2019-05-26T01:31:25.222Z,64.12
2019-05-26T01:32:25.226Z,64.56
2019-05-26T01:33:25.239Z,64.12
2019-05-26T01:34:25.264Z,64.37
2019-05-26T01:35:25.249Z,64.37
2019-05-26T01:36:25.308Z,64.47
2019-05-26T01:37:25.254Z,64.47
2019-05-26T01:38:25.266Z,64.85
2019-05-26T01:39:25.413Z,65.14
2019-05-26T01:40:25.337Z,64.85
2019-05-26T01:41:25.299Z,64.85
2019-05-26T01:42:25.302Z,64.85
2019-05-26T01:43:25.316Z,64.75
2019-05-26T01:44:25.325Z,64.75
2019-05-26T01:45:25.323Z,64.95
2019-05-26T01:46:25.343Z,64.75
2019-05-26T01:47:25.399Z,64.56
2019-05-26T01:48:25.335Z,64.75
2019-05-26T01:49:25.351Z,64.75
2019-05-26T01:50:25.345Z,64.85
2019-05-26T01:51:25.380Z,65.42
2019-05-26T01:52:25.428Z,65.04
2019-05-26T01:53:25.368Z,65.04
2019-05-26T01:54:25.432Z,64.95
2019-05-26T01:55:25.383Z,65.23
2019-05-26T01:56:25.422Z,65.04
2019-05-26T01:57:25.408Z,64.95
2019-05-26T01:58:25.402Z,65.42
2019-05-26T01:59:25.413Z,65.42
2019-05-26T02:00:25.420Z,65.33
2019-05-26T02:01:25.430Z,65.71
2019-05-26T02:02:25.455Z,65.33
2019-05-26T02:03:25.439Z,65.42
2019-05-26T02:04:25.484Z,65.23
2019-05-26T02:05:25.481Z,64.95
2019-05-26T02:06:25.471Z,65.52
2019-05-26T02:07:25.499Z,65.81
2019-05-26T02:08:38.313Z,65.52
2019-05-26T02:09:25.492Z,65.90
2019-05-26T02:10:25.504Z,65.81
2019-05-26T02:11:25.513Z,65.71
2019-05-26T02:12:25.602Z,65.52
2019-05-26T02:13:25.515Z,65.52
2019-05-26T02:14:25.522Z,65.71
2019-05-26T02:15:25.552Z,65.71
2019-05-26T02:16:25.545Z,65.61
2019-05-26T02:17:25.552Z,65.61
2019-05-26T02:18:25.580Z,65.81
2019-05-26T02:19:25.581Z,65.81
2019-05-26T02:20:25.587Z,65.71
2019-05-26T02:21:25.617Z,65.90
2019-05-26T02:22:25.582Z,66.38
2019-05-26T02:23:25.604Z,66.28
2019-05-26T02:24:25.601Z,66.19
2019-05-26T02:25:25.610Z,66.09
2019-05-26T02:26:25.611Z,66.38
2019-05-26T02:27:25.627Z,66.19
2019-05-26T02:28:25.651Z,66.57
2019-05-26T02:29:25.657Z,66.38
2019-05-26T02:30:25.653Z,66.47
2019-05-26T02:31:25.644Z,66.57
2019-05-26T02:32:25.659Z,66.38
2019-05-26T02:33:25.717Z,66.19
2019-05-26T02:34:25.687Z,66.38
2019-05-26T02:35:25.686Z,66.47
2019-05-26T02:36:25.729Z,66.09
2019-05-26T02:37:25.713Z,66.28
2019-05-26T02:38:26.576Z,66.09
2019-05-26T02:39:25.723Z,66.38
2019-05-26T02:40:25.714Z,66.19
2019-05-26T02:41:25.733Z,66.38
2019-05-26T02:42:25.725Z,66.38
2019-05-26T02:43:25.733Z,66.47
2019-05-26T02:44:25.773Z,66.19
2019-05-26T02:45:25.763Z,66.47
2019-05-26T02:46:25.819Z,66.47
2019-05-26T02:47:25.775Z,66.47
2019-05-26T02:48:25.797Z,66.09
2019-05-26T02:49:25.785Z,66.28
2019-05-26T02:50:25.782Z,66.38
2019-05-26T02:51:25.800Z,66.38
2019-05-26T02:52:25.853Z,66.38
2019-05-26T02:53:25.819Z,66.28
2019-05-26T02:54:25.822Z,66.57
2019-05-26T02:55:25.836Z,66.38
2019-05-26T02:56:25.828Z,66.00
2019-05-26T02:57:25.855Z,66.09
2019-05-26T02:58:25.844Z,66.19
2019-05-26T02:59:25.850Z,66.00
2019-05-26T03:00:25.878Z,66.47
2019-05-26T03:01:25.877Z,66.19
2019-05-26T03:02:25.895Z,66.19
2019-05-26T03:03:25.904Z,66.09
2019-05-26T03:04:25.899Z,66.28
2019-05-26T03:05:25.904Z,66.00
2019-05-26T03:06:26.012Z,66.47
2019-05-26T03:07:25.923Z,66.76
2019-05-26T03:08:25.934Z,66.57
2019-05-26T03:09:25.952Z,66.67
2019-05-26T03:10:25.928Z,66.76
2019-05-26T03:11:25.950Z,66.76
2019-05-26T03:12:26.008Z,66.67
2019-05-26T03:13:25.994Z,66.86
2019-05-26T03:14:25.991Z,67.05
2019-05-26T03:15:25.977Z,66.19
2019-05-26T03:16:25.988Z,66.19
2019-05-26T03:17:26.033Z,66.38
2019-05-26T03:18:26.004Z,66.47
2019-05-26T03:19:26.005Z,66.38
2019-05-26T03:20:26.038Z,66.38
2019-05-26T03:21:26.023Z,66.19
2019-05-26T03:22:26.022Z,66.19
2019-05-26T03:23:26.049Z,66.28
2019-05-26T03:24:26.047Z,66.47
2019-05-26T03:25:26.044Z,66.47
2019-05-26T03:26:26.067Z,66.47
2019-05-26T03:27:26.067Z,66.19
2019-05-26T03:28:26.096Z,66.00
2019-05-26T03:29:26.094Z,66.47
2019-05-26T03:30:26.077Z,66.09
2019-05-26T03:31:26.090Z,66.32
2019-05-26T03:32:26.095Z,65.84
2019-05-26T03:33:26.141Z,65.55
2019-05-26T03:34:26.123Z,65.36
2019-05-26T03:35:26.127Z,65.52
2019-05-26T03:36:26.135Z,65.61
2019-05-26T03:37:26.152Z,65.74
2019-05-26T03:38:26.192Z,65.61
2019-05-26T03:39:43.214Z,65.45
2019-05-26T03:40:26.185Z,65.65
2019-05-26T03:41:26.173Z,65.65
2019-05-26T03:42:26.179Z,65.55
2019-05-26T03:43:26.188Z,65.55
2019-05-26T03:44:26.221Z,65.65
2019-05-26T03:45:26.217Z,66.03
2019-05-26T03:46:26.210Z,65.36
2019-05-26T03:47:26.611Z,65.17
2019-05-26T03:48:26.225Z,64.98
2019-05-26T03:49:26.262Z,65.17
2019-05-26T03:50:26.381Z,64.50
2019-05-26T03:51:26.262Z,65.26
2019-05-26T03:52:26.270Z,64.59
2019-05-26T03:53:26.262Z,64.88
2019-05-26T03:54:26.262Z,65.08
2019-05-26T03:55:26.281Z,64.88
2019-05-26T03:56:26.351Z,64.92
2019-05-26T03:57:26.280Z,64.12
2019-05-26T03:58:26.288Z,64.02
2019-05-26T03:59:26.308Z,63.96
2019-05-26T04:00:26.306Z,63.67
2019-05-26T04:01:26.317Z,63.67
2019-05-26T04:02:26.354Z,63.48
2019-05-26T04:03:26.352Z,62.90
2019-05-26T04:04:26.338Z,62.81
2019-05-26T04:05:26.398Z,63.29
2019-05-26T04:06:26.351Z,63.29
2019-05-26T04:07:26.430Z,63.00
2019-05-26T04:08:26.368Z,62.90
2019-05-26T04:09:26.392Z,62.62
2019-05-26T04:10:26.397Z,63.19
2019-05-26T04:11:26.395Z,62.62
2019-05-26T04:12:26.489Z,62.07
2019-05-26T04:13:26.435Z,62.17
2019-05-26T04:14:26.479Z,62.26
2019-05-26T04:15:26.428Z,62.26
2019-05-26T04:16:26.434Z,62.07
2019-05-26T04:17:26.479Z,61.50
2019-05-26T04:18:26.481Z,61.21
2019-05-26T04:19:26.480Z,61.60
2019-05-26T04:20:26.476Z,61.02
2019-05-26T04:21:26.507Z,60.93
2019-05-26T04:22:26.514Z,60.64
2019-05-26T04:23:26.519Z,60.76
2019-05-26T04:24:26.532Z,61.15
2019-05-26T04:25:26.512Z,60.19
2019-05-26T04:26:26.520Z,60.47
2019-05-26T04:27:26.535Z,60.00
2019-05-26T04:28:26.611Z,60.00
2019-05-26T04:29:26.578Z,59.74
2019-05-26T04:30:26.554Z,59.45
2019-05-26T04:31:26.567Z,59.55
2019-05-26T04:32:26.571Z,59.45
2019-05-26T04:33:26.572Z,58.59
2019-05-26T04:34:26.598Z,58.11
2019-05-26T04:35:26.591Z,58.39
2019-05-26T04:36:26.608Z,58.42
2019-05-26T04:37:26.623Z,58.14
2019-05-26T04:38:26.644Z,57.56
2019-05-26T04:39:26.651Z,57.56
2019-05-26T04:40:27.785Z,56.98
2019-05-26T04:41:26.646Z,57.46
2019-05-26T04:42:26.655Z,56.60
2019-05-26T04:43:26.669Z,56.41
2019-05-26T04:44:26.688Z,56.53
2019-05-26T04:45:26.696Z,56.92
2019-05-26T04:46:26.702Z,56.44
2019-05-26T04:47:26.705Z,56.24
2019-05-26T04:48:26.727Z,56.63
2019-05-26T04:49:26.770Z,56.63
2019-05-26T04:50:26.740Z,56.73
2019-05-26T04:51:26.732Z,56.05
2019-05-26T04:52:26.742Z,56.27
2019-05-26T04:53:26.759Z,55.69
2019-05-26T04:54:26.771Z,55.89
2019-05-26T04:55:26.834Z,55.99
2019-05-26T04:56:26.877Z,56.08
2019-05-26T04:57:26.824Z,55.69
2019-05-26T04:58:26.796Z,55.69
2019-05-26T04:59:26.803Z,54.77
2019-05-26T05:00:26.813Z,54.77
2019-05-26T05:01:26.870Z,54.96
2019-05-26T05:02:26.840Z,54.67
2019-05-26T05:03:26.903Z,54.28
2019-05-26T05:04:26.855Z,54.31
2019-05-26T05:05:26.868Z,53.25
2019-05-26T05:06:26.884Z,53.25
2019-05-26T05:07:28.529Z,53.16
2019-05-26T05:08:26.894Z,53.28
2019-05-26T05:09:26.910Z,52.70
2019-05-26T05:10:41.426Z,52.32
2019-05-26T05:11:26.912Z,51.93
2019-05-26T05:12:26.943Z,51.74
2019-05-26T05:13:26.950Z,51.86
2019-05-26T05:14:26.984Z,51.29
2019-05-26T05:15:26.980Z,51.29
2019-05-26T05:16:26.978Z,51.38
2019-05-26T05:17:27.029Z,50.81
2019-05-26T05:18:26.998Z,50.42
2019-05-26T05:19:27.017Z,50.45
2019-05-26T05:20:27.026Z,50.35
2019-05-26T05:21:27.035Z,50.35
2019-05-26T05:22:27.036Z,50.27
2019-05-26T05:23:27.069Z,49.99
2019-05-26T05:24:27.052Z,49.89
2019-05-26T05:25:27.101Z,49.53
2019-05-26T05:26:27.114Z,48.57
2019-05-26T05:27:27.113Z,48.69
2019-05-26T05:28:27.110Z,48.21
2019-05-26T05:29:27.115Z,47.55
2019-05-26T05:30:27.157Z,47.48
2019-05-26T05:31:27.130Z,46.61
2019-05-26T05:32:27.168Z,45.96
2019-05-26T05:33:27.158Z,45.48
2019-05-26T05:34:27.168Z,45.31
2019-05-26T05:35:27.198Z,43.68
2019-05-26T05:36:27.208Z,43.49
2019-05-26T05:37:27.199Z,43.05
2019-05-26T05:38:27.215Z,41.99
2019-05-26T05:39:27.220Z,41.14
2019-05-26T05:40:27.261Z,41.06
2019-05-26T05:41:27.288Z,40.67
2019-05-26T05:42:27.277Z,39.80
2019-05-26T05:43:27.279Z,39.92
2019-05-26T05:44:27.342Z,39.36
2019-05-26T05:45:27.307Z,38.58
2019-05-26T05:46:27.327Z,38.87
2019-05-26T05:47:27.355Z,38.19
2019-05-26T05:48:27.383Z,38.68
2019-05-26T05:49:27.376Z,37.82
2019-05-26T05:50:27.376Z,37.43
2019-05-26T05:51:27.402Z,37.82
2019-05-26T05:52:30.533Z,37.05
2019-05-26T05:53:28.957Z,36.85
2019-05-26T05:54:27.461Z,37.15
2019-05-26T05:55:27.581Z,37.26
2019-05-26T05:56:27.484Z,36.77
2019-05-26T05:57:27.854Z,36.36
2019-05-26T05:58:28.012Z,36.46
2019-05-26T05:59:27.790Z,36.56
2019-05-26T06:00:28.220Z,36.38
2019-05-26T06:01:27.630Z,36.36
2019-05-26T06:02:27.537Z,36.48
2019-05-26T06:03:27.566Z,36.38
2019-05-26T06:04:27.605Z,36.48
2019-05-26T06:05:27.583Z,36.19
2019-05-26T06:06:27.593Z,36.10
2019-05-26T06:07:27.620Z,35.80
2019-05-26T06:08:27.614Z,35.90
2019-05-26T06:09:27.656Z,35.90
2019-05-26T06:10:27.664Z,35.90
2019-05-26T06:11:27.698Z,36.02
2019-05-26T06:12:27.667Z,36.11
2019-05-26T06:13:27.703Z,36.02
2019-05-26T06:14:27.757Z,35.33
2019-05-26T06:15:27.725Z,35.53
2019-05-26T06:16:27.753Z,36.02
2019-05-26T06:17:27.744Z,35.05
2019-05-26T06:18:27.764Z,34.85
2019-05-26T06:19:27.792Z,35.24
2019-05-26T06:20:27.787Z,34.85
2019-05-26T06:21:27.806Z,34.95
2019-05-26T06:22:27.820Z,34.95
2019-05-26T06:23:27.830Z,34.95
2019-05-26T06:24:27.873Z,35.16
2019-05-26T06:25:27.862Z,34.67
2019-05-26T06:26:27.885Z,34.48
2019-05-26T06:27:27.890Z,34.20
2019-05-26T06:28:28.009Z,34.01
2019-05-26T06:29:27.931Z,33.81
2019-05-26T06:30:27.924Z,33.81
2019-05-26T06:31:27.969Z,33.53
2019-05-26T06:32:27.949Z,33.81
2019-05-26T06:33:27.991Z,33.64
2019-05-26T06:34:28.008Z,33.25
2019-05-26T06:35:28.024Z,33.15
2019-05-26T06:36:28.022Z,33.25
2019-05-26T06:37:28.094Z,33.36
2019-05-26T06:38:28.057Z,32.68
2019-05-26T06:39:28.082Z,32.20
2019-05-26T06:40:28.188Z,31.90
2019-05-26T06:41:33.466Z,32.40
2019-05-26T06:42:28.148Z,32.20
2019-05-26T06:43:28.115Z,32.50
2019-05-26T06:44:28.166Z,32.40
2019-05-26T06:45:28.205Z,32.11
2019-05-26T06:46:28.181Z,32.21
2019-05-26T06:47:28.200Z,31.73
2019-05-26T06:48:28.211Z,31.90
2019-05-26T06:49:28.210Z,32.10
2019-05-26T06:50:28.273Z,32.49
2019-05-26T06:51:28.247Z,32.18
2019-05-26T06:52:28.269Z,32.45
2019-05-26T06:53:28.308Z,32.55
2019-05-26T06:54:28.300Z,33.33
2019-05-26T06:55:28.483Z,33.04
2019-05-26T06:56:28.348Z,32.84
2019-05-26T06:57:28.550Z,33.23
2019-05-26T06:58:28.377Z,33.53
2019-05-26T06:59:28.393Z,32.94
2019-05-26T07:00:28.384Z,33.43
2019-05-26T07:01:28.445Z,33.61
2019-05-26T07:02:28.429Z,33.41
2019-05-26T07:03:28.434Z,33.78
2019-05-26T07:04:28.450Z,33.59
2019-05-26T07:05:28.498Z,33.86
2019-05-26T07:06:28.504Z,33.96
2019-05-26T07:07:28.491Z,34.62
2019-05-26T07:08:28.515Z,35.11
2019-05-26T07:09:28.548Z,35.11
2019-05-26T07:10:28.576Z,34.81
2019-05-26T07:11:28.571Z,35.01
2019-05-26T07:12:28.578Z,35.67
2019-05-26T07:13:28.610Z,35.86
2019-05-26T07:14:28.593Z,35.86
2019-05-26T07:15:28.628Z,36.25
2019-05-26T07:16:37.979Z,36.43
2019-05-26T07:17:28.666Z,37.11
2019-05-26T07:18:28.671Z,36.91
2019-05-26T07:19:28.676Z,36.72
2019-05-26T07:20:28.692Z,37.09
2019-05-26T07:21:28.705Z,37.69
2019-05-26T07:22:28.813Z,37.57
2019-05-26T07:23:28.745Z,37.28
2019-05-26T07:24:29.612Z,37.57
2019-05-26T07:25:28.770Z,37.77
2019-05-26T07:26:28.838Z,38.45
2019-05-26T07:27:28.792Z,38.64
2019-05-26T07:28:28.815Z,38.35
2019-05-26T07:29:28.854Z,38.25
2019-05-26T07:30:28.825Z,38.73
2019-05-26T07:31:28.850Z,39.03
2019-05-26T07:32:28.883Z,38.81
2019-05-26T07:33:28.897Z,38.62
2019-05-26T07:34:28.937Z,38.91
2019-05-26T07:35:28.895Z,38.83
2019-05-26T07:36:29.225Z,38.71
2019-05-26T07:37:28.965Z,38.53
2019-05-26T07:38:29.225Z,38.91
2019-05-26T07:39:28.952Z,38.62
2019-05-26T07:40:28.983Z,38.71
2019-05-26T07:41:29.174Z,38.81
2019-05-26T07:42:29.013Z,39.11
2019-05-26T07:43:29.026Z,39.29
2019-05-26T07:44:29.047Z,38.91
2019-05-26T07:45:29.046Z,39.11
2019-05-26T07:46:29.044Z,38.62
2019-05-26T07:47:29.079Z,38.91
2019-05-26T07:48:29.090Z,38.81
2019-05-26T07:49:29.092Z,38.91
2019-05-26T07:50:29.147Z,38.71
2019-05-26T07:51:29.114Z,38.91
2019-05-26T07:52:29.147Z,38.25
2019-05-26T07:53:29.154Z,38.43
2019-05-26T07:54:29.201Z,38.93
2019-05-26T07:55:29.204Z,38.81
2019-05-26T07:56:29.222Z,38.81
2019-05-26T07:57:29.201Z,38.81
2019-05-26T07:58:29.239Z,38.71
2019-05-26T07:59:29.233Z,38.62
2019-05-26T08:00:29.282Z,38.71
2019-05-26T08:01:35.769Z,38.13
2019-05-26T08:02:29.260Z,38.23
2019-05-26T08:03:29.297Z,38.33
2019-05-26T08:04:29.295Z,38.81
2019-05-26T08:05:29.326Z,38.25
2019-05-26T08:06:29.333Z,38.83
2019-05-26T08:07:29.347Z,38.83
2019-05-26T08:08:29.347Z,38.64
2019-05-26T08:09:29.381Z,38.54
2019-05-26T08:10:29.428Z,38.35
2019-05-26T08:11:29.397Z,38.25
2019-05-26T08:12:30.696Z,38.25
2019-05-26T08:13:29.407Z,38.83
2019-05-26T08:14:29.446Z,38.06
2019-05-26T08:15:29.496Z,38.45
2019-05-26T08:16:29.492Z,38.25
2019-05-26T08:17:29.467Z,38.25
2019-05-26T08:18:29.474Z,38.73
2019-05-26T08:19:29.489Z,38.45
2019-05-26T08:20:29.637Z,38.64
2019-05-26T08:21:29.557Z,38.54
2019-05-26T08:22:29.622Z,38.83
2019-05-26T08:23:29.560Z,38.25
2019-05-26T08:24:29.587Z,38.37
2019-05-26T08:25:29.572Z,38.27
2019-05-26T08:26:29.659Z,38.07
2019-05-26T08:27:29.624Z,37.88
2019-05-26T08:28:29.625Z,38.17
2019-05-26T08:29:29.642Z,37.51
2019-05-26T08:30:29.654Z,37.13
2019-05-26T08:31:29.666Z,36.82
2019-05-26T08:32:29.740Z,37.21
2019-05-26T08:33:31.481Z,37.71
2019-05-26T08:34:29.707Z,37.21
2019-05-26T08:35:29.718Z,36.93
2019-05-26T08:36:29.725Z,36.93
2019-05-26T08:37:29.794Z,37.23
2019-05-26T08:38:29.765Z,37.81
2019-05-26T08:39:29.770Z,37.71
2019-05-26T08:40:29.800Z,37.71
2019-05-26T08:41:29.803Z,37.03
2019-05-26T08:42:43.787Z,37.23
2019-05-26T08:43:29.855Z,37.71
2019-05-26T08:44:29.889Z,37.03
2019-05-26T08:45:29.858Z,37.41
2019-05-26T08:46:29.867Z,37.11
2019-05-26T08:47:29.896Z,36.91
2019-05-26T08:48:29.910Z,36.83
2019-05-26T08:49:29.933Z,37.32
2019-05-26T08:50:29.929Z,36.93
2019-05-26T08:51:29.987Z,37.03
2019-05-26T08:52:30.051Z,37.13
2019-05-26T08:53:29.973Z,36.93
2019-05-26T08:54:30.074Z,37.13
2019-05-26T08:55:30.030Z,37.13
2019-05-26T08:56:30.020Z,37.23
2019-05-26T08:57:30.057Z,37.03
2019-05-26T08:58:30.057Z,37.13
2019-05-26T08:59:30.317Z,36.91
2019-05-26T09:00:30.090Z,37.01
2019-05-26T09:01:30.104Z,37.40
2019-05-26T09:02:30.094Z,38.27
2019-05-26T09:03:30.160Z,38.56
2019-05-26T09:04:30.129Z,38.17
2019-05-26T09:05:30.154Z,38.27
2019-05-26T09:06:30.168Z,37.61
2019-05-26T09:07:30.170Z,38.09
2019-05-26T09:08:30.187Z,38.48
2019-05-26T09:09:30.215Z,38.39
2019-05-26T09:10:30.207Z,38.17
2019-05-26T09:11:30.241Z,37.98
2019-05-26T09:12:30.335Z,37.88
2019-05-26T09:13:30.256Z,37.69
2019-05-26T09:14:30.253Z,38.46
2019-05-26T09:15:30.308Z,38.07
2019-05-26T09:16:30.287Z,37.98
2019-05-26T09:17:30.309Z,37.38
2019-05-26T09:18:30.311Z,37.57
2019-05-26T09:19:30.449Z,37.11
2019-05-26T09:20:30.383Z,37.57
2019-05-26T09:21:30.371Z,38.64
2019-05-26T09:22:30.381Z,38.35
2019-05-26T09:23:30.399Z,38.45
2019-05-26T09:24:30.394Z,38.64
2019-05-26T09:25:30.409Z,38.35
2019-05-26T09:26:30.466Z,37.67
2019-05-26T09:27:30.434Z,38.23
2019-05-26T09:28:30.480Z,38.64
2019-05-26T09:29:30.469Z,37.94
2019-05-26T09:30:30.497Z,38.91
2019-05-26T09:31:33.916Z,38.81
2019-05-26T09:32:30.533Z,38.83
2019-05-26T09:33:30.563Z,38.25
2019-05-26T09:34:30.587Z,38.45
2019-05-26T09:35:30.584Z,37.96
2019-05-26T09:36:30.558Z,37.57
2019-05-26T09:37:30.586Z,38.35
2019-05-26T09:38:30.614Z,38.06
2019-05-26T09:39:30.644Z,38.06
2019-05-26T09:40:30.657Z,38.15
2019-05-26T09:41:30.637Z,37.57
2019-05-26T09:42:30.662Z,37.38
2019-05-26T09:43:30.724Z,37.77
2019-05-26T09:44:30.716Z,37.87
2019-05-26T09:45:30.716Z,37.19
2019-05-26T09:46:30.701Z,36.99
2019-05-26T09:47:30.719Z,37.19
2019-05-26T09:48:30.729Z,37.19
2019-05-26T09:49:30.786Z,36.90
2019-05-26T09:50:30.767Z,36.90
2019-05-26T09:51:30.825Z,37.09
2019-05-26T09:52:30.797Z,36.99
2019-05-26T09:53:30.801Z,36.90
2019-05-26T09:54:30.828Z,36.90
2019-05-26T09:55:30.898Z,36.90
2019-05-26T09:56:30.839Z,36.99
2019-05-26T09:57:30.873Z,37.09
2019-05-26T09:58:30.861Z,37.38
2019-05-26T09:59:31.136Z,37.77
2019-05-26T10:00:30.950Z,37.11
2019-05-26T10:01:30.963Z,37.09
2019-05-26T10:02:30.924Z,37.01
2019-05-26T10:03:30.946Z,36.52
2019-05-26T10:04:30.966Z,36.24
2019-05-26T10:05:30.991Z,36.82
2019-05-26T10:06:30.979Z,36.52
2019-05-26T10:07:31.011Z,36.72
2019-05-26T10:08:31.043Z,35.75
2019-05-26T10:09:31.069Z,36.24
2019-05-26T10:10:31.061Z,36.06
2019-05-26T10:11:31.070Z,35.77
2019-05-26T10:12:31.130Z,36.25
2019-05-26T10:13:32.186Z,36.44
2019-05-26T10:14:31.083Z,35.77
2019-05-26T10:15:31.116Z,35.46
2019-05-26T10:16:31.325Z,35.48
2019-05-26T10:17:31.151Z,34.99
2019-05-26T10:18:31.153Z,35.77
2019-05-26T10:19:31.175Z,36.06
2019-05-26T10:20:31.180Z,35.75
2019-05-26T10:21:31.181Z,36.04
2019-05-26T10:22:31.233Z,35.57
2019-05-26T10:23:31.288Z,35.27
2019-05-26T10:24:31.227Z,35.56
2019-05-26T10:25:31.266Z,35.56
2019-05-26T10:26:31.263Z,35.96
2019-05-26T10:27:31.358Z,35.38
2019-05-26T10:28:31.366Z,35.48
2019-05-26T10:29:31.296Z,35.96
2019-05-26T10:30:31.444Z,35.38
2019-05-26T10:31:31.351Z,36.06
2019-05-26T10:32:31.441Z,35.77
2019-05-26T10:33:31.359Z,35.96
2019-05-26T10:34:31.429Z,36.06
2019-05-26T10:35:31.409Z,35.77
2019-05-26T10:36:31.401Z,36.06
2019-05-26T10:37:31.418Z,36.16
2019-05-26T10:38:31.480Z,35.57
2019-05-26T10:39:31.485Z,35.77
2019-05-26T10:40:31.474Z,35.67
2019-05-26T10:41:31.500Z,36.06
2019-05-26T10:42:31.480Z,35.96
2019-05-26T10:43:44.488Z,35.86
2019-05-26T10:44:31.558Z,36.06
2019-05-26T10:45:34.301Z,35.57
2019-05-26T10:46:31.564Z,35.19
2019-05-26T10:47:31.569Z,35.09
2019-05-26T10:48:31.621Z,34.61
2019-05-26T10:49:31.710Z,35.57
2019-05-26T10:50:31.633Z,35.38
2019-05-26T10:51:31.653Z,35.09
2019-05-26T10:52:31.663Z,35.57
2019-05-26T10:53:31.642Z,35.57
2019-05-26T10:54:31.785Z,35.01
2019-05-26T10:55:31.710Z,34.91
2019-05-26T10:56:31.708Z,35.01
2019-05-26T10:57:31.739Z,34.80
2019-05-26T10:58:31.727Z,34.70
2019-05-26T10:59:31.730Z,34.80
2019-05-26T11:00:33.166Z,34.89
2019-05-26T11:01:31.826Z,35.09
2019-05-26T11:02:31.823Z,34.80
2019-05-26T11:03:31.798Z,34.89
2019-05-26T11:04:31.812Z,35.19
2019-05-26T11:05:31.871Z,35.30
2019-05-26T11:06:31.932Z,35.59
2019-05-26T11:07:31.870Z,35.40
2019-05-26T11:08:31.889Z,34.89
2019-05-26T11:09:31.974Z,35.48
2019-05-26T11:10:31.986Z,34.99
2019-05-26T11:11:31.959Z,34.89
2019-05-26T11:12:31.929Z,34.70
2019-05-26T11:13:31.930Z,35.09
2019-05-26T11:14:31.943Z,35.09
2019-05-26T11:15:31.955Z,35.77
2019-05-26T11:16:32.019Z,36.16
2019-05-26T11:17:31.988Z,35.96
2019-05-26T11:18:32.005Z,36.06
2019-05-26T11:19:32.025Z,35.67
2019-05-26T11:20:32.066Z,35.57
2019-05-26T11:21:32.097Z,34.89
2019-05-26T11:22:32.101Z,35.78
2019-05-26T11:23:32.246Z,34.72
2019-05-26T11:24:32.088Z,35.28
2019-05-26T11:25:32.129Z,35.67
2019-05-26T11:26:32.184Z,34.99
2019-05-26T11:27:32.207Z,34.80
2019-05-26T11:28:32.293Z,34.81
2019-05-26T11:29:32.170Z,35.11
2019-05-26T11:30:32.182Z,35.59
2019-05-26T11:31:32.229Z,34.89
2019-05-26T11:32:32.426Z,35.01
2019-05-26T11:33:32.235Z,35.01
2019-05-26T11:34:32.260Z,35.01
2019-05-26T11:35:32.251Z,34.81
2019-05-26T11:36:32.262Z,34.81
2019-05-26T11:37:32.301Z,35.48
2019-05-26T11:38:33.688Z,35.38
2019-05-26T11:39:32.317Z,35.77
2019-05-26T11:40:32.699Z,35.38
2019-05-26T11:41:32.354Z,35.09
2019-05-26T11:42:32.384Z,35.48
2019-05-26T11:43:32.405Z,35.67
2019-05-26T11:44:32.428Z,35.67
2019-05-26T11:45:32.433Z,34.99
2019-05-26T11:46:32.413Z,35.38
2019-05-26T11:47:32.429Z,35.57
2019-05-26T11:48:32.877Z,34.99
2019-05-26T11:49:32.444Z,35.28
2019-05-26T11:50:32.548Z,35.57
2019-05-26T11:51:32.545Z,35.86
2019-05-26T11:52:32.510Z,35.77
2019-05-26T11:53:32.631Z,36.06
2019-05-26T11:54:34.669Z,35.77
2019-05-26T11:55:32.537Z,35.77
2019-05-26T11:56:32.539Z,35.96
2019-05-26T11:57:36.973Z,35.77
2019-05-26T11:58:32.800Z,35.69
2019-05-26T11:59:32.594Z,35.59
2019-05-26T12:00:32.598Z,35.21
2019-05-26T12:01:32.684Z,35.30
2019-05-26T12:02:32.634Z,35.01
2019-05-26T12:03:32.679Z,34.72
2019-05-26T12:04:32.687Z,34.81
2019-05-26T12:05:32.671Z,35.01
2019-05-26T12:06:32.710Z,34.91
2019-05-26T12:07:32.732Z,34.81
2019-05-26T12:08:32.868Z,34.91
2019-05-26T12:09:32.767Z,35.03
2019-05-26T12:10:32.769Z,34.54
2019-05-26T12:11:32.815Z,34.64
2019-05-26T12:12:32.811Z,34.83
2019-05-26T12:13:36.571Z,34.54
2019-05-26T12:14:35.311Z,34.64
2019-05-26T12:15:32.843Z,34.23
2019-05-26T12:16:32.862Z,34.44
2019-05-26T12:17:32.858Z,34.64
2019-05-26T12:18:32.880Z,34.54
2019-05-26T12:19:32.917Z,34.83
2019-05-26T12:20:32.919Z,34.64
2019-05-26T12:21:33.000Z,34.08
2019-05-26T12:22:32.925Z,34.35
2019-05-26T12:23:32.935Z,34.74
2019-05-26T12:24:32.981Z,34.16
2019-05-26T12:25:33.068Z,34.93
2019-05-26T12:26:33.001Z,34.54
2019-05-26T12:27:33.048Z,34.56
2019-05-26T12:28:33.205Z,33.98
2019-05-26T12:29:33.054Z,34.27
2019-05-26T12:30:33.077Z,33.96
2019-05-26T12:31:33.068Z,34.06
2019-05-26T12:32:33.082Z,34.44
2019-05-26T12:33:33.108Z,33.88
2019-05-26T12:34:33.114Z,33.57
2019-05-26T12:35:33.171Z,33.86
2019-05-26T12:36:33.144Z,33.78
2019-05-26T12:37:33.203Z,33.49
2019-05-26T12:38:33.187Z,33.49
2019-05-26T12:39:33.221Z,33.49
2019-05-26T12:40:33.254Z,33.39
2019-05-26T12:41:36.879Z,33.78
2019-05-26T12:42:33.241Z,33.88
2019-05-26T12:43:33.297Z,33.78
2019-05-26T12:44:46.751Z,33.49
2019-05-26T12:45:33.302Z,33.69
2019-05-26T12:46:33.345Z,33.29
2019-05-26T12:47:33.358Z,33.20
2019-05-26T12:48:33.331Z,33.20
2019-05-26T12:49:33.333Z,33.49
2019-05-26T12:50:33.382Z,33.01
2019-05-26T12:51:33.390Z,33.01
2019-05-26T12:52:33.393Z,33.11